Terminal Aerodrome Forecast
Issued by NWS

Home | Current Version | Previous Version | Text Only | Print | Product List | Glossary On
Versions: 1 2 3 4 5 6 7 8 9 10 11 12 13
000
FTUS44 KLIX 221120
TAFHUM
TAF
KHUM 221120Z 2212/2312 13009KT P6SM VCSH SCT020 BKN050
      TEMPO 2212/2216 VRB30KT 2SM TSRA BKN020CB
     FM221600 15007KT 6SM SHRA SCT025 OVC070
      TEMPO 2218/2222 2SM TSRA BKN025CB
     FM222300 19006KT P6SM SCT040 BKN090 PROB30 2223/2301 4SM -SHRA
      OVC040
     FM230100 22006KT P6SM BKN040 BKN090 PROB30 2301/2303 4SM -SHRA
      OVC040
     FM230300 31007KT P6SM BKN040 BKN090 PROB30 2303/2305 4SM -SHRA
      OVC025
     FM230600 33008KT P6SM BKN012=

USA.gov is the U.S. government's official web portal to all federal, state and local government web resources and services.